createdAt,value
2022-10-06T00:00:29.008Z,65.66
2022-10-06T00:05:31.316Z,67.16
2022-10-06T00:10:34.047Z,68.07
2022-10-06T00:15:36.274Z,68.02
2022-10-06T00:20:38.380Z,67.87
2022-10-06T00:25:40.470Z,65.77
2022-10-06T00:30:43.133Z,68.02
2022-10-06T00:35:45.723Z,68.05
2022-10-06T00:40:50.324Z,68.38
2022-10-06T00:45:52.455Z,68.25
2022-10-06T00:50:58.109Z,68.50
2022-10-06T00:56:00.242Z,68.63
2022-10-06T01:01:03.241Z,66.17
2022-10-06T01:06:05.829Z,67.85
2022-10-06T01:11:14.358Z,68.50
2022-10-06T01:16:23.283Z,68.76
2022-10-06T01:21:44.180Z,68.60
2022-10-06T01:26:50.830Z,68.75
2022-10-06T01:31:53.122Z,68.40
2022-10-06T01:36:55.955Z,68.46
2022-10-06T01:41:58.233Z,68.46
2022-10-06T01:47:00.461Z,68.41
2022-10-06T01:52:03.075Z,68.59
2022-10-06T01:57:06.958Z,68.69
2022-10-06T02:02:09.161Z,68.71
2022-10-06T02:07:11.611Z,68.93
2022-10-06T02:12:18.936Z,68.68
2022-10-06T02:17:21.247Z,67.93
2022-10-06T02:22:23.321Z,67.95
2022-10-06T02:27:26.107Z,68.24
2022-10-06T02:32:36.963Z,67.73
2022-10-06T02:37:40.539Z,67.24
2022-10-06T02:42:45.768Z,67.34
2022-10-06T02:47:54.200Z,67.65
2022-10-06T02:52:57.135Z,68.28
2022-10-06T02:58:00.324Z,67.94
2022-10-06T03:03:02.568Z,67.52
2022-10-06T03:08:04.802Z,68.24
2022-10-06T03:13:07.118Z,68.34
2022-10-06T03:18:10.194Z,68.22
2022-10-06T03:23:13.634Z,68.61
2022-10-06T03:28:17.173Z,69.03
2022-10-06T03:33:19.592Z,68.92
2022-10-06T03:38:22.663Z,68.89
2022-10-06T03:43:25.148Z,68.60
2022-10-06T03:48:32.282Z,68.84
2022-10-06T03:53:36.267Z,69.23
2022-10-06T03:58:41.588Z,68.78
2022-10-06T04:03:44.403Z,68.48
2022-10-06T04:08:48.750Z,67.56
2022-10-06T04:14:02.809Z,67.84
2022-10-06T04:19:10.063Z,67.92
2022-10-06T04:24:17.284Z,67.78
2022-10-06T04:29:21.518Z,67.35
2022-10-06T04:34:28.620Z,66.21
2022-10-06T04:39:31.184Z,66.35
2022-10-06T04:44:33.494Z,65.01
2022-10-06T04:49:37.611Z,64.43
2022-10-06T04:54:40.414Z,65.13
2022-10-06T05:00:07.851Z,65.24
2022-10-06T05:05:13.174Z,65.24
2022-10-06T05:10:15.506Z,66.17
2022-10-06T05:15:18.132Z,65.17
2022-10-06T05:20:23.912Z,65.27
2022-10-06T05:25:27.086Z,64.86
2022-10-06T05:30:29.362Z,65.54
2022-10-06T05:35:32.008Z,65.43
2022-10-06T05:40:34.352Z,65.60
2022-10-06T05:45:36.962Z,64.85
2022-10-06T05:50:39.179Z,65.47
2022-10-06T05:55:41.426Z,65.20
2022-10-06T06:00:43.741Z,65.36
2022-10-06T06:05:46.199Z,65.73
2022-10-06T06:10:48.508Z,65.70
2022-10-06T06:16:04.296Z,65.43
2022-10-06T06:21:09.851Z,64.77
2022-10-06T06:26:38.635Z,64.17
2022-10-06T06:31:44.198Z,64.28
2022-10-06T06:36:53.577Z,64.34
2022-10-06T06:41:56.019Z,63.73
2022-10-06T06:47:13.367Z,63.88
2022-10-06T06:52:15.838Z,63.67
2022-10-06T06:57:18.326Z,64.09
2022-10-06T07:02:29.914Z,63.24
2022-10-06T07:07:32.805Z,63.00
2022-10-06T07:12:46.319Z,62.39
2022-10-06T07:18:07.195Z,61.93
2022-10-06T07:23:39.402Z,63.22
2022-10-06T07:28:46.385Z,63.62
2022-10-06T07:33:51.170Z,64.10
2022-10-06T07:38:53.633Z,63.33
2022-10-06T07:43:55.857Z,62.42
2022-10-06T07:49:00.315Z,62.12
2022-10-06T07:54:02.949Z,62.59
2022-10-06T07:59:09.653Z,62.63
2022-10-06T08:04:13.211Z,62.90
2022-10-06T08:09:15.287Z,63.10
2022-10-06T08:14:17.187Z,62.06
2022-10-06T08:19:19.772Z,63.17
2022-10-06T08:24:21.864Z,63.45
2022-10-06T08:29:23.792Z,62.43
2022-10-06T08:34:25.851Z,63.77
2022-10-06T08:39:31.036Z,64.09
2022-10-06T08:44:44.627Z,64.06
2022-10-06T08:49:48.526Z,64.20
2022-10-06T08:55:14.547Z,64.09
2022-10-06T09:00:21.273Z,64.30
2022-10-06T09:05:28.522Z,64.19
2022-10-06T09:10:33.441Z,64.54
2022-10-06T09:15:46.755Z,64.78
2022-10-06T09:21:09.853Z,64.78
2022-10-06T09:26:14.511Z,65.11
2022-10-06T09:31:32.046Z,65.09
2022-10-06T09:37:01.553Z,65.03
2022-10-06T09:42:11.943Z,65.59
2022-10-06T09:47:29.099Z,65.40
2022-10-06T09:52:31.260Z,64.49
2022-10-06T09:57:33.896Z,65.05
2022-10-06T10:02:37.383Z,65.35
2022-10-06T10:07:39.572Z,65.05
2022-10-06T10:12:49.336Z,63.43
2022-10-06T10:18:04.147Z,64.57
2022-10-06T10:23:17.455Z,64.48
2022-10-06T10:28:22.511Z,64.52
2022-10-06T10:34:05.149Z,63.81
2022-10-06T10:39:27.236Z,63.04
2022-10-06T10:44:37.420Z,61.84
2022-10-06T10:49:43.440Z,60.64
2022-10-06T10:55:26.828Z,60.53
2022-10-06T11:00:31.501Z,59.56
2022-10-06T11:05:46.120Z,59.80
2022-10-06T11:10:52.956Z,60.90
2022-10-06T11:15:58.128Z,61.21
2022-10-06T11:21:10.017Z,61.94
2022-10-06T11:26:38.219Z,62.33
2022-10-06T11:32:00.202Z,62.41
2022-10-06T11:37:32.031Z,62.71
2022-10-06T11:42:49.296Z,62.42
2022-10-06T11:48:19.336Z,62.11
2022-10-06T11:53:37.264Z,62.35
2022-10-06T11:58:51.692Z,62.14
2022-10-06T12:04:21.952Z,62.17
2022-10-06T12:09:26.254Z,61.97
2022-10-06T12:20:01.460Z,61.76
2022-10-06T12:25:25.219Z,61.94
2022-10-06T12:30:52.327Z,62.00
2022-10-06T12:36:02.353Z,62.16
2022-10-06T12:41:09.749Z,62.45
2022-10-06T12:46:16.375Z,61.42
2022-10-06T12:51:44.599Z,61.10
2022-10-06T12:57:20.224Z,61.40
2022-10-06T13:02:24.033Z,61.30
2022-10-06T13:07:28.971Z,62.09
2022-10-06T13:12:36.955Z,61.77
2022-10-06T13:17:51.919Z,61.66
2022-10-06T13:23:03.210Z,61.93
2022-10-06T13:28:20.489Z,61.66
2022-10-06T13:33:25.477Z,61.96
2022-10-06T13:38:31.855Z,62.55
2022-10-06T13:43:40.312Z,62.50
2022-10-06T13:48:51.078Z,62.15
2022-10-06T13:54:21.390Z,62.59
2022-10-06T13:59:31.991Z,61.02
2022-10-06T14:04:36.047Z,62.03
2022-10-06T14:09:42.931Z,62.66
2022-10-06T14:14:53.146Z,62.45
2022-10-06T14:19:55.241Z,63.02
2022-10-06T14:24:57.295Z,62.37
2022-10-06T14:29:59.581Z,62.66
2022-10-06T14:35:02.550Z,62.67
2022-10-06T14:40:10.143Z,63.00
2022-10-06T14:45:14.227Z,63.13
2022-10-06T14:50:16.447Z,63.42
2022-10-06T14:55:18.900Z,63.23
2022-10-06T15:00:21.794Z,63.46
2022-10-06T15:05:24.103Z,63.10
2022-10-06T15:10:26.975Z,63.30
2022-10-06T15:15:33.848Z,63.59
2022-10-06T15:20:36.004Z,63.32
2022-10-06T15:25:56.601Z,61.78
2022-10-06T15:30:58.757Z,62.76
2022-10-06T15:36:19.056Z,63.23
2022-10-06T15:41:22.226Z,63.05
2022-10-06T15:46:40.108Z,62.81
2022-10-06T15:51:48.913Z,63.57
2022-10-06T15:56:56.252Z,63.25
2022-10-06T16:02:05.193Z,63.38
2022-10-06T16:07:12.858Z,63.50
2022-10-06T16:12:17.913Z,64.12
2022-10-06T16:17:20.590Z,64.07
2022-10-06T16:22:22.672Z,64.19
2022-10-06T16:27:24.585Z,62.65
2022-10-06T16:32:26.644Z,64.00
2022-10-06T16:37:28.789Z,62.53
2022-10-06T16:42:30.957Z,64.19
2022-10-06T16:47:33.251Z,64.22
2022-10-06T16:52:35.709Z,64.61
2022-10-06T16:57:37.901Z,64.44
2022-10-06T17:02:41.159Z,64.80
2022-10-06T17:07:43.837Z,64.23
2022-10-06T17:12:46.099Z,64.38
2022-10-06T17:17:48.208Z,64.45
2022-10-06T17:22:50.452Z,64.58
2022-10-06T17:27:52.658Z,64.57
2022-10-06T17:32:55.225Z,64.82
2022-10-06T17:37:59.264Z,65.05
2022-10-06T17:43:01.466Z,65.29
2022-10-06T17:48:03.674Z,65.19
2022-10-06T17:53:05.811Z,65.06
2022-10-06T17:58:08.631Z,65.42
2022-10-06T18:03:11.166Z,65.55
2022-10-06T18:08:13.515Z,65.69
2022-10-06T18:13:15.997Z,65.70
2022-10-06T18:18:25.286Z,66.07
2022-10-06T18:23:27.605Z,65.89
2022-10-06T18:28:29.771Z,66.04
2022-10-06T18:38:55.394Z,63.72
2022-10-06T18:43:58.625Z,66.19
2022-10-06T18:49:11.109Z,67.19
2022-10-06T18:54:16.592Z,67.10
2022-10-06T18:59:22.846Z,66.82
2022-10-06T19:04:25.039Z,66.73
2022-10-06T19:09:27.604Z,67.30
2022-10-06T19:14:35.421Z,67.30
2022-10-06T19:19:37.551Z,67.26
2022-10-06T19:24:42.140Z,67.18
2022-10-06T19:29:46.921Z,66.93
2022-10-06T19:34:49.112Z,67.46
2022-10-06T19:39:51.176Z,67.45
2022-10-06T19:44:53.765Z,67.65
2022-10-06T19:50:00.834Z,65.16
2022-10-06T19:55:05.481Z,67.31
2022-10-06T20:00:08.870Z,67.62
2022-10-06T20:05:17.531Z,67.90
2022-10-06T20:10:19.658Z,67.56
2022-10-06T20:15:22.682Z,67.87
2022-10-06T20:20:24.791Z,67.78
2022-10-06T20:25:26.743Z,65.95
2022-10-06T20:30:29.583Z,67.35
2022-10-06T20:35:33.224Z,67.23
2022-10-06T20:40:49.245Z,67.63
2022-10-06T20:45:54.168Z,68.11
2022-10-06T20:50:56.455Z,68.03
2022-10-06T20:56:00.282Z,68.52
2022-10-06T21:01:08.302Z,68.79
2022-10-06T21:06:14.511Z,68.80
2022-10-06T21:11:19.390Z,69.00
2022-10-06T21:16:32.003Z,68.66
2022-10-06T21:21:35.365Z,69.22
2022-10-06T21:26:38.920Z,69.85
2022-10-06T21:31:41.910Z,70.10
2022-10-06T21:36:44.450Z,70.47
2022-10-06T21:41:46.589Z,70.46
2022-10-06T21:46:51.409Z,71.38
2022-10-06T21:51:55.705Z,70.65
2022-10-06T21:56:59.143Z,71.17
2022-10-06T22:02:01.511Z,70.99
2022-10-06T22:07:03.837Z,71.48
2022-10-06T22:12:05.997Z,71.24
2022-10-06T22:17:08.317Z,71.47
2022-10-06T22:22:10.556Z,71.43
2022-10-06T22:27:12.693Z,71.38
2022-10-06T22:32:14.800Z,70.95
2022-10-06T22:37:16.734Z,69.09
2022-10-06T22:42:18.871Z,70.65
2022-10-06T22:47:21.023Z,71.00
2022-10-06T22:52:23.152Z,70.92
2022-10-06T22:57:25.301Z,70.78
2022-10-06T23:02:27.474Z,70.75
2022-10-06T23:07:29.639Z,70.67
2022-10-06T23:12:31.833Z,70.58
2022-10-06T23:17:33.938Z,70.92
2022-10-06T23:22:35.910Z,68.27
2022-10-06T23:27:37.969Z,70.29
2022-10-06T23:32:40.945Z,68.44
2022-10-06T23:37:43.331Z,70.93
2022-10-06T23:42:45.601Z,71.14
2022-10-06T23:47:47.853Z,71.09
2022-10-06T23:52:50.020Z,71.58
2022-10-06T23:57:53.346Z,71.64
